Time;durP1;ratioP1;P1;durP2;ratioP2;P2;SDS_P1;SDS_P2;PMS_P1;PMS_P2;Temp;Humidity;BMP_temperature;BMP_pressure;BME280_temperature;BME280_humidity;BME280_pressure;Samples;Min_cycle;Max_cycle;Signal;HPM_P1;HPM_P2
2022/11/30 00:01:29;;;;;;;1999.90;999.90;;;6.70;99.90;;;;;;5048465;28;20452;-68
2022/11/30 00:03:57;;;;;;;1999.90;999.90;;;6.80;99.90;;;;;;5047992;28;20448;-68
2022/11/30 00:06:25;;;;;;;1999.90;999.90;;;6.70;99.90;;;;;;5048115;28;20448;-69
2022/11/30 00:08:53;;;;;;;1999.90;999.90;;;6.70;99.90;;;;;;5047205;28;20476;-68
2022/11/30 00:11:22;;;;;;;1999.90;999.90;;;6.70;99.90;;;;;;5047856;28;20926;-69
2022/11/30 00:13:49;;;;;;;1999.90;999.90;;;6.70;99.90;;;;;;5047892;28;20448;-67
2022/11/30 00:16:16;;;;;;;1999.90;999.90;;;6.70;99.90;;;;;;5047859;28;20448;-69
2022/11/30 00:18:43;;;;;;;1999.90;999.90;;;6.70;99.90;;;;;;5047684;28;20445;-68
2022/11/30 00:21:12;;;;;;;1999.90;999.90;;;6.70;99.90;;;;;;5047466;28;20476;-68
2022/11/30 00:23:41;;;;;;;1999.90;999.90;;;6.60;99.90;;;;;;5047960;28;20459;-68
2022/11/30 00:26:10;;;;;;;1999.90;999.90;;;6.60;99.90;;;;;;5047672;28;20447;-68
2022/11/30 00:28:38;;;;;;;1999.90;999.90;;;6.70;99.90;;;;;;5047592;28;20819;-67
2022/11/30 00:31:07;;;;;;;1999.90;999.90;;;6.70;99.90;;;;;;5042266;28;20861;-67
2022/11/30 00:33:36;;;;;;;1999.90;999.90;;;6.70;99.90;;;;;;5048570;28;20444;-68
2022/11/30 00:36:05;;;;;;;1999.90;999.90;;;6.60;99.90;;;;;;5028968;28;20529;-68
2022/11/30 00:38:32;;;;;;;1999.90;999.90;;;6.60;99.90;;;;;;5028351;28;20449;-68
2022/11/30 00:40:59;;;;;;;1999.90;999.90;;;6.70;99.90;;;;;;5028562;28;20461;-68
2022/11/30 00:43:28;;;;;;;1999.90;999.90;;;6.70;99.90;;;;;;5028789;28;21193;-68
2022/11/30 00:45:56;;;;;;;1999.90;999.90;;;6.70;99.90;;;;;;5028339;28;20440;-66
2022/11/30 00:48:22;;;;;;;1999.90;999.90;;;6.60;99.90;;;;;;5047460;28;20447;-67
2022/11/30 00:50:50;;;;;;;1999.90;999.90;;;6.60;99.90;;;;;;5048890;28;20483;-67
2022/11/30 00:53:17;;;;;;;1999.90;999.90;;;6.50;99.90;;;;;;5050134;28;20452;-66
2022/11/30 00:55:45;;;;;;;1999.90;999.90;;;6.50;99.90;;;;;;5050098;28;20466;-67
2022/11/30 00:58:12;;;;;;;1999.90;999.90;;;6.60;99.90;;;;;;5050109;28;20804;-66
2022/11/30 01:00:39;;;;;;;1999.90;999.90;;;6.50;99.90;;;;;;5049734;28;20460;-66
2022/11/30 01:03:07;;;;;;;1999.90;999.90;;;6.60;99.90;;;;;;5050083;28;20452;-65
2022/11/30 01:05:35;;;;;;;1999.90;999.90;;;6.60;99.90;;;;;;5049709;28;20444;-66
2022/11/30 01:08:02;;;;;;;1999.90;999.90;;;6.50;99.90;;;;;;5049895;28;21184;-66
2022/11/30 01:10:29;;;;;;;1999.90;999.90;;;6.60;99.90;;;;;;5049505;28;20491;-66
2022/11/30 01:12:56;;;;;;;1999.90;999.90;;;6.60;99.90;;;;;;5049826;28;20448;-66
2022/11/30 01:15:23;;;;;;;1999.90;999.90;;;6.60;99.90;;;;;;5049830;28;20821;-66
2022/11/30 01:17:50;;;;;;;1999.90;999.90;;;6.70;99.90;;;;;;5049753;28;20455;-66
2022/11/30 01:20:18;;;;;;;1999.90;999.90;;;6.70;99.90;;;;;;5049511;28;20846;-66
2022/11/30 01:22:45;;;;;;;1999.90;999.90;;;6.70;99.90;;;;;;5049756;28;20452;-66
2022/11/30 01:25:12;;;;;;;1999.90;999.90;;;6.70;99.90;;;;;;5049669;28;20444;-66
2022/11/30 01:27:38;;;;;;;1999.90;999.90;;;6.70;99.90;;;;;;5049431;28;20448;-66
2022/11/30 01:30:07;;;;;;;1999.90;999.90;;;6.70;99.90;;;;;;5049076;28;20507;-66
2022/11/30 01:32:34;;;;;;;1999.90;999.90;;;6.80;99.90;;;;;;5049281;28;20444;-66
2022/11/30 01:35:00;;;;;;;1999.90;999.90;;;6.80;99.90;;;;;;5049588;28;20483;-66
2022/11/30 01:37:30;;;;;;;1999.90;999.90;;;6.70;99.90;;;;;;5049551;28;20816;-66
2022/11/30 01:39:56;;;;;;;1999.90;999.90;;;6.70;99.90;;;;;;5048829;28;20468;-66
2022/11/30 01:42:23;;;;;;;1999.90;999.90;;;6.70;99.90;;;;;;5049089;28;20444;-66
2022/11/30 01:44:55;;;;;;;1999.90;999.90;;;6.60;99.90;;;;;;5049329;28;20535;-66
2022/11/30 01:47:26;;;;;;;1999.90;999.90;;;6.70;99.90;;;;;;5049550;28;20440;-66
2022/11/30 01:49:58;;;;;;;1999.90;999.90;;;6.70;99.90;;;;;;5048790;28;20488;-66
2022/11/30 01:52:28;;;;;;;1999.90;999.90;;;6.60;99.90;;;;;;5049390;28;20544;-66
2022/11/30 01:55:03;;;;;;;1999.90;999.90;;;6.60;99.90;;;;;;5049001;28;20447;-67
2022/11/30 01:57:34;;;;;;;1999.90;999.90;;;6.60;99.90;;;;;;5049457;28;20448;-67
2022/11/30 02:00:05;;;;;;;1999.90;999.90;;;6.70;99.90;;;;;;5048744;28;20460;-67
2022/11/30 02:02:42;;;;;;;1999.90;999.90;;;6.70;99.90;;;;;;5049396;28;20475;-67
2022/11/30 02:05:11;;;;;;;1999.90;999.90;;;6.70;99.90;;;;;;5048873;28;20531;-67
2022/11/30 02:07:38;;;;;;;1999.90;999.90;;;6.80;99.90;;;;;;5049085;28;20458;-67
2022/11/30 02:10:12;;;;;;;1999.90;999.90;;;6.80;99.90;;;;;;5048710;28;20854;-67
2022/11/30 02:12:52;;;;;;;1999.90;999.90;;;6.80;99.90;;;;;;5049287;28;20455;-67
2022/11/30 02:15:26;;;;;;;1999.90;999.90;;;6.80;99.90;;;;;;5049227;28;20444;-67
2022/11/30 02:18:01;;;;;;;1999.90;999.90;;;6.70;99.90;;;;;;5051236;28;20446;-67
2022/11/30 02:20:49;;;;;;;1999.90;999.90;;;6.80;99.90;;;;;;5052650;28;20977;-66
2022/11/30 02:23:46;;;;;;;1999.90;999.90;;;6.80;99.90;;;;;;5052725;28;20444;-67
2022/11/30 02:26:27;;;;;;;1999.90;999.90;;;6.80;99.90;;;;;;5052516;28;20448;-67
2022/11/30 02:29:17;;;;;;;1999.90;999.90;;;6.70;99.90;;;;;;5052504;28;20440;-67
2022/11/30 02:31:50;;;;;;;1999.90;999.90;;;6.80;99.90;;;;;;5052580;28;20459;-67
2022/11/30 02:34:21;;;;;;;1999.90;999.90;;;6.70;99.90;;;;;;5052603;28;20440;-67
2022/11/30 02:36:48;;;;;;;1999.90;999.90;;;6.70;99.90;;;;;;5052337;28;20448;-67
2022/11/30 02:39:15;;;;;;;1999.90;999.90;;;6.70;99.90;;;;;;5052182;28;20440;-66
2022/11/30 02:41:42;;;;;;;1999.90;999.90;;;6.70;99.90;;;;;;5052439;28;20469;-66
2022/11/30 02:44:12;;;;;;;1999.90;999.90;;;6.70;99.90;;;;;;5052399;28;20443;-67
2022/11/30 02:46:54;;;;;;;1999.90;999.90;;;6.70;99.90;;;;;;5052572;28;20440;-66
2022/11/30 02:49:28;;;;;;;1999.90;999.90;;;6.80;99.90;;;;;;5051536;28;20454;-67
2022/11/30 02:51:56;;;;;;;1999.90;999.90;;;6.70;99.90;;;;;;5052430;28;20462;-66
2022/11/30 02:54:24;;;;;;;1999.90;999.90;;;6.70;99.90;;;;;;5052197;28;20440;-66
2022/11/30 02:56:51;;;;;;;1999.90;999.90;;;6.70;99.90;;;;;;5052104;28;20452;-66
2022/11/30 02:59:20;;;;;;;1999.90;999.90;;;6.60;99.90;;;;;;5051653;28;20455;-67
2022/11/30 03:01:46;;;;;;;1999.90;999.90;;;6.60;99.90;;;;;;5051758;28;20474;-66
2022/11/30 03:04:13;;;;;;;1999.90;999.90;;;6.70;99.90;;;;;;5051750;28;20439;-67
2022/11/30 03:06:40;;;;;;;1999.90;999.90;;;6.80;99.90;;;;;;5052089;28;20474;-67
2022/11/30 03:09:07;;;;;;;1999.90;999.90;;;6.90;99.90;;;;;;5051685;28;20444;-67
2022/11/30 03:11:34;;;;;;;1999.90;999.90;;;6.90;99.90;;;;;;5051349;28;20488;-66
2022/11/30 03:14:01;;;;;;;1999.90;999.90;;;6.90;99.90;;;;;;5052272;28;20469;-67
2022/11/30 03:16:29;;;;;;;1999.90;999.90;;;6.90;99.90;;;;;;5051385;28;20440;-66
2022/11/30 03:18:57;;;;;;;1999.90;999.90;;;6.90;99.90;;;;;;5051195;28;20964;-66
2022/11/30 03:21:24;;;;;;;1999.90;999.90;;;6.90;99.90;;;;;;5051238;28;20494;-66
2022/11/30 03:23:51;;;;;;;1999.90;999.90;;;6.90;99.90;;;;;;5051662;28;20459;-66
2022/11/30 03:26:17;;;;;;;1999.90;999.90;;;6.90;99.90;;;;;;5051357;28;20812;-67
2022/11/30 03:28:44;;;;;;;1999.90;999.90;;;6.90;99.90;;;;;;5049747;28;20968;-66
2022/11/30 03:31:11;;;;;;;1999.90;999.90;;;6.90;99.90;;;;;;5051222;28;20484;-68
2022/11/30 03:33:40;;;;;;;1999.90;999.90;;;6.90;99.90;;;;;;5051484;28;20444;-66
2022/11/30 03:36:10;;;;;;;1999.90;999.90;;;6.90;99.90;;;;;;5051273;28;20463;-66
2022/11/30 03:38:37;;;;;;;1999.90;999.90;;;6.90;99.90;;;;;;5050841;28;20448;-66
2022/11/30 03:41:05;;;;;;;1999.90;999.90;;;6.90;99.90;;;;;;5051130;28;20464;-66
2022/11/30 03:43:32;;;;;;;1999.90;999.90;;;6.90;99.90;;;;;;5051046;28;20444;-66
2022/11/30 03:45:59;;;;;;;1999.90;999.90;;;6.90;99.90;;;;;;5051468;28;20835;-66
2022/11/30 03:48:26;;;;;;;1999.90;999.90;;;6.90;99.90;;;;;;5050953;28;20858;-66
2022/11/30 03:50:55;;;;;;;1999.90;999.90;;;6.90;99.90;;;;;;5051365;28;20487;-66
2022/11/30 03:53:23;;;;;;;1999.90;999.90;;;6.80;99.90;;;;;;5051216;28;20447;-66
2022/11/30 03:55:53;;;;;;;1999.90;999.90;;;6.80;99.90;;;;;;5051250;28;20448;-66
2022/11/30 03:58:19;;;;;;;1999.90;999.90;;;6.80;99.90;;;;;;5050954;28;20455;-66
2022/11/30 04:00:46;;;;;;;1999.90;999.90;;;6.90;99.90;;;;;;5051341;28;20460;-66
2022/11/30 04:03:13;;;;;;;1999.90;999.90;;;6.90;99.90;;;;;;5050955;28;20452;-66
2022/11/30 04:05:40;;;;;;;1999.90;999.90;;;6.90;99.90;;;;;;5050789;28;20447;-66
2022/11/30 04:08:08;;;;;;;1999.90;999.90;;;6.90;99.90;;;;;;5051079;28;20444;-66
2022/11/30 04:10:35;;;;;;;1999.90;999.90;;;7.00;99.90;;;;;;5050400;28;20490;-66
2022/11/30 04:13:01;;;;;;;1999.90;999.90;;;7.00;99.90;;;;;;5051677;28;20451;-66
2022/11/30 04:15:28;;;;;;;1999.90;999.90;;;6.90;99.90;;;;;;5051070;28;20448;-66
2022/11/30 04:17:55;;;;;;;1999.90;999.90;;;6.80;99.90;;;;;;5050942;28;20454;-66
2022/11/30 04:20:21;;;;;;;1999.90;999.90;;;6.90;99.90;;;;;;5050093;28;20456;-66
2022/11/30 04:22:48;;;;;;;1999.90;999.90;;;6.80;99.90;;;;;;5050773;28;20448;-66
2022/11/30 04:25:16;;;;;;;1999.90;999.90;;;6.70;99.90;;;;;;5050389;28;20479;-67
2022/11/30 04:27:46;;;;;;;1999.90;999.90;;;6.70;99.90;;;;;;5050315;28;20440;-67
2022/11/30 04:30:13;;;;;;;1999.90;999.90;;;6.70;99.90;;;;;;5050154;28;20910;-67
2022/11/30 04:32:40;;;;;;;1999.90;999.90;;;6.70;99.90;;;;;;5050099;28;20448;-66
2022/11/30 04:35:09;;;;;;;1999.90;999.90;;;6.80;99.90;;;;;;5050245;28;20456;-67
2022/11/30 04:37:36;;;;;;;1999.90;999.90;;;6.80;99.90;;;;;;5049829;28;20502;-67
2022/11/30 04:40:03;;;;;;;1999.90;999.90;;;6.80;99.90;;;;;;5049640;28;20479;-67
2022/11/30 04:42:31;;;;;;;1999.90;999.90;;;6.80;99.90;;;;;;5050063;28;20448;-67
2022/11/30 04:44:57;;;;;;;1999.90;999.90;;;6.80;99.90;;;;;;5050624;28;20455;-67
2022/11/30 04:47:24;;;;;;;1999.90;999.90;;;6.80;99.90;;;;;;5049882;28;20448;-67
2022/11/30 04:49:51;;;;;;;1999.90;999.90;;;6.90;99.90;;;;;;5049637;28;20471;-67
2022/11/30 04:52:18;;;;;;;1999.90;999.90;;;7.00;99.90;;;;;;5049733;28;20470;-67
2022/11/30 04:54:44;;;;;;;1999.90;999.90;;;6.90;99.90;;;;;;5050093;28;20827;-67
2022/11/30 04:57:11;;;;;;;1999.90;999.90;;;6.90;99.90;;;;;;5050026;28;20455;-67
2022/11/30 04:59:39;;;;;;;1999.90;999.90;;;6.90;99.90;;;;;;5049413;28;20444;-67
2022/11/30 05:02:06;;;;;;;1999.90;999.90;;;6.90;99.90;;;;;;5049762;28;20440;-67
2022/11/30 05:04:33;;;;;;;1999.90;999.90;;;6.90;99.90;;;;;;5049572;28;20447;-67
2022/11/30 05:07:00;;;;;;;1999.90;999.90;;;6.90;99.90;;;;;;5050119;28;20448;-67
2022/11/30 05:09:26;;;;;;;1999.90;999.90;;;6.90;99.90;;;;;;5049523;28;20447;-67
2022/11/30 05:11:53;;;;;;;1999.90;999.90;;;6.80;99.90;;;;;;5049856;28;20483;-67
2022/11/30 05:14:20;;;;;;;1999.90;999.90;;;6.70;99.90;;;;;;5049477;28;20448;-67
2022/11/30 05:16:49;;;;;;;1999.90;999.90;;;6.70;99.90;;;;;;5049743;28;20448;-68
2022/11/30 05:19:15;;;;;;;1999.90;999.90;;;6.70;99.90;;;;;;5049045;28;20455;-68
2022/11/30 05:21:43;;;;;;;1999.90;999.90;;;6.60;99.90;;;;;;5049931;28;20464;-67
2022/11/30 05:24:10;;;;;;;1999.90;999.90;;;6.50;99.90;;;;;;5049443;28;20448;-68
2022/11/30 05:26:38;;;;;;;1999.90;999.90;;;6.50;99.90;;;;;;5049389;28;20863;-67
2022/11/30 05:29:05;;;;;;;1999.90;999.90;;;6.50;99.90;;;;;;5049261;28;20780;-68
2022/11/30 05:31:32;;;;;;;1999.90;999.90;;;6.50;99.90;;;;;;5049381;28;20480;-68
2022/11/30 05:34:01;;;;;;;1999.90;999.90;;;6.60;99.90;;;;;;5049392;28;20450;-67
2022/11/30 05:36:27;;;;;;;1999.90;999.90;;;6.70;99.90;;;;;;5049306;28;20460;-68
2022/11/30 05:38:54;;;;;;;1999.90;999.90;;;6.70;99.90;;;;;;5049259;28;20444;-68
2022/11/30 05:41:21;;;;;;;1999.90;999.90;;;6.80;99.90;;;;;;5049243;28;20464;-67
2022/11/30 05:43:48;;;;;;;1999.90;999.90;;;6.70;99.90;;;;;;5049419;28;20443;-67
2022/11/30 05:46:14;;;;;;;1999.90;999.90;;;6.70;99.90;;;;;;5049027;28;20440;-67
2022/11/30 05:48:41;;;;;;;1999.90;999.90;;;6.70;99.90;;;;;;5048929;28;20439;-66
2022/11/30 05:51:11;;;;;;;1999.90;999.90;;;6.60;99.90;;;;;;5049136;28;20519;-67
2022/11/30 05:53:38;;;;;;;1999.90;999.90;;;6.70;99.90;;;;;;5052935;28;20466;-67
2022/11/30 05:56:08;;;;;;;1999.90;999.90;;;6.60;99.90;;;;;;5053211;28;20447;-66
2022/11/30 05:58:35;;;;;;;1999.90;999.90;;;6.60;99.90;;;;;;5039803;28;20914;-66
2022/11/30 06:01:02;;;;;;;1999.90;999.90;;;6.60;99.90;;;;;;5032884;28;20475;-66
2022/11/30 06:03:29;;;;;;;1999.90;999.90;;;6.60;99.90;;;;;;5033229;28;20448;-67
2022/11/30 06:05:56;;;;;;;1999.90;999.90;;;6.60;99.90;;;;;;5045821;28;20447;-67
2022/11/30 06:08:25;;;;;;;1999.90;999.90;;;6.60;99.90;;;;;;5044011;28;20459;-67
2022/11/30 06:10:52;;;;;;;1999.90;999.90;;;6.70;99.90;;;;;;5041545;28;20491;-68
2022/11/30 06:13:19;;;;;;;1999.90;999.90;;;6.70;99.90;;;;;;5042815;28;20452;-67
2022/11/30 06:15:46;;;;;;;1999.90;999.90;;;6.70;99.90;;;;;;5041980;28;20460;-67
2022/11/30 06:18:13;;;;;;;1999.90;999.90;;;6.70;99.90;;;;;;5047895;28;20448;-68
2022/11/30 06:20:40;;;;;;;1999.90;999.90;;;6.70;99.90;;;;;;5050667;28;21009;-67
2022/11/30 06:23:07;;;;;;;1999.90;999.90;;;6.80;99.90;;;;;;5051709;28;20440;-67
2022/11/30 06:25:35;;;;;;;1999.90;999.90;;;6.80;99.90;;;;;;5050545;28;20453;-68
2022/11/30 06:28:02;;;;;;;1999.90;999.90;;;6.80;99.90;;;;;;5051241;28;20447;-67
2022/11/30 06:30:29;;;;;;;1999.90;999.90;;;6.70;99.90;;;;;;5050559;28;20464;-68
2022/11/30 06:32:55;;;;;;;1999.90;999.90;;;6.80;99.90;;;;;;5052558;28;20444;-68
2022/11/30 06:35:22;;;;;;;1999.90;999.90;;;6.80;99.90;;;;;;5052343;28;20993;-67
2022/11/30 06:37:49;;;;;;;1999.90;999.90;;;6.80;99.90;;;;;;5052700;28;20830;-67
2022/11/30 06:40:16;;;;;;;1999.90;999.90;;;6.70;99.90;;;;;;5052174;28;21042;-67
2022/11/30 06:42:44;;;;;;;1999.90;999.90;;;6.60;99.90;;;;;;5052115;28;20876;-67
2022/11/30 06:45:11;;;;;;;1999.90;999.90;;;6.70;99.90;;;;;;5052612;28;20444;-67
2022/11/30 06:47:38;;;;;;;1999.90;999.90;;;6.80;99.90;;;;;;5052197;28;20459;-67
2022/11/30 06:50:07;;;;;;;1999.90;999.90;;;6.80;99.90;;;;;;5051730;28;20468;-67
2022/11/30 06:52:34;;;;;;;1999.90;999.90;;;6.80;99.90;;;;;;5052018;28;20510;-67
2022/11/30 06:55:00;;;;;;;1999.90;999.90;;;6.80;99.90;;;;;;5052180;28;20992;-67
2022/11/30 06:57:28;;;;;;;1999.90;999.90;;;6.80;99.90;;;;;;5051773;28;20444;-67
2022/11/30 06:59:57;;;;;;;1999.90;999.90;;;6.80;99.90;;;;;;5051775;28;20468;-67
2022/11/30 07:02:24;;;;;;;1999.90;999.90;;;6.80;99.90;;;;;;5051723;28;20437;-67
2022/11/30 07:04:50;;;;;;;1999.90;999.90;;;6.80;99.90;;;;;;5052139;28;20458;-67
2022/11/30 07:07:17;;;;;;;1999.90;999.90;;;6.80;99.90;;;;;;5052170;28;20985;-67
2022/11/30 07:09:44;;;;;;;1999.90;999.90;;;6.80;99.90;;;;;;5051708;28;20843;-68
2022/11/30 07:12:11;;;;;;;1999.90;999.90;;;6.80;99.90;;;;;;5052000;28;20858;-66
2022/11/30 07:14:38;;;;;;;1999.90;999.90;;;6.90;99.90;;;;;;5051767;28;20497;-66
2022/11/30 07:17:06;;;;;;;1999.90;999.90;;;7.10;99.90;;;;;;5051914;28;20823;-65
2022/11/30 07:19:33;;;;;;;1999.90;999.90;;;7.10;99.90;;;;;;5051565;28;20439;-65
2022/11/30 07:22:00;;;;;;;1999.90;999.90;;;7.10;99.90;;;;;;5051917;28;20493;-65
2022/11/30 07:27:12;;;;;;;1999.90;999.90;;;7.10;99.90;;;;;;5051684;28;20423;-65
2022/11/30 07:29:38;;;;;;;1999.90;999.90;;;7.20;99.90;;;;;;5051235;28;20448;-65
2022/11/30 07:32:07;;;;;;;1999.90;999.90;;;7.20;99.90;;;;;;5051619;28;20480;-66
2022/11/30 07:34:33;;;;;;;1999.90;999.90;;;7.10;99.90;;;;;;5051043;28;21150;-67
2022/11/30 07:37:00;;;;;;;1999.90;999.90;;;7.00;99.90;;;;;;5051646;28;20963;-66
2022/11/30 07:39:27;;;;;;;1999.90;999.90;;;7.00;99.90;;;;;;5051352;28;20455;-67
2022/11/30 07:41:54;;;;;;;1999.90;999.90;;;6.90;99.90;;;;;;5051562;28;21169;-67
2022/11/30 07:44:20;;;;;;;1999.90;999.90;;;7.00;99.90;;;;;;5051775;28;20448;-66
2022/11/30 07:46:47;;;;;;;1999.90;999.90;;;7.10;99.90;;;;;;5051837;28;20452;-66
2022/11/30 07:49:15;;;;;;;1999.90;999.90;;;7.20;99.90;;;;;;5048166;28;20448;-67
2022/11/30 07:51:42;;;;;;;1999.90;999.90;;;7.20;99.90;;;;;;5051342;28;21080;-67
2022/11/30 07:54:09;;;;;;;1999.90;999.90;;;7.30;99.90;;;;;;5051446;28;20454;-67
2022/11/30 07:56:35;;;;;;;1999.90;999.90;;;7.40;99.90;;;;;;5043173;28;20962;-68
2022/11/30 07:59:03;;;;;;;1999.90;999.90;;;7.50;99.90;;;;;;5049461;28;20440;-67
2022/11/30 08:01:32;;;;;;;1999.90;999.90;;;7.70;99.90;;;;;;5050767;28;20456;-67
2022/11/30 08:03:59;;;;;;;1999.90;999.90;;;7.80;99.90;;;;;;5051021;28;20491;-68
2022/11/30 08:06:29;;;;;;;1999.90;999.90;;;7.90;99.90;;;;;;5050751;28;20864;-67
2022/11/30 08:08:58;;;;;;;1999.90;999.90;;;8.00;99.90;;;;;;5049848;28;20456;-67
2022/11/30 08:11:29;;;;;;;1999.90;999.90;;;7.90;99.90;;;;;;5047593;28;20494;-67
2022/11/30 08:13:56;;;;;;;1999.90;999.90;;;7.90;99.90;;;;;;5047828;28;20813;-67
2022/11/30 08:16:25;;;;;;;1999.90;999.90;;;8.00;99.90;;;;;;5049116;28;20440;-67
2022/11/30 08:18:52;;;;;;;1999.90;999.90;;;8.00;99.90;;;;;;5050207;28;20833;-67
2022/11/30 08:21:20;;;;;;;1999.90;999.90;;;8.10;99.90;;;;;;5050362;28;20491;-68
2022/11/30 08:23:50;;;;;;;1999.90;999.90;;;8.10;99.90;;;;;;5050543;28;20789;-67
2022/11/30 08:26:19;;;;;;;1999.90;999.90;;;8.20;99.90;;;;;;5050372;28;20444;-67
2022/11/30 08:28:47;;;;;;;1999.90;999.90;;;8.40;99.90;;;;;;5049771;28;20451;-67
2022/11/30 08:31:16;;;;;;;1999.90;999.90;;;8.40;99.90;;;;;;5050166;28;20482;-67
2022/11/30 08:33:43;;;;;;;1999.90;999.90;;;8.40;99.90;;;;;;5050037;28;20448;-68
2022/11/30 08:36:12;;;;;;;1999.90;999.90;;;8.40;99.90;;;;;;5050197;28;20455;-67
2022/11/30 08:38:39;;;;;;;1999.90;999.90;;;8.60;99.90;;;;;;5049620;28;20935;-66
2022/11/30 08:41:09;;;;;;;1999.90;999.90;;;8.70;99.90;;;;;;5049863;28;20843;-66
2022/11/30 08:43:36;;;;;;;1999.90;999.90;;;8.70;99.90;;;;;;5050267;28;20950;-67
2022/11/30 08:46:08;;;;;;;1999.90;999.90;;;8.80;99.90;;;;;;5049819;28;20476;-67
2022/11/30 08:48:43;;;;;;;1999.90;999.90;;;8.80;99.90;;;;;;5049948;28;20798;-69
2022/11/30 08:51:12;;;;;;;1999.90;999.90;;;8.80;99.90;;;;;;5046309;28;20467;-70
2022/11/30 08:53:40;;;;;;;1999.90;999.90;;;8.90;99.90;;;;;;5050058;28;20455;-69
2022/11/30 08:56:11;;;;;;;1999.90;999.90;;;8.90;99.90;;;;;;5049843;28;20444;-69
2022/11/30 08:58:39;;;;;;;1999.90;999.90;;;9.00;99.90;;;;;;5049839;28;20450;-70
2022/11/30 09:01:07;;;;;;;1999.90;999.90;;;9.00;99.90;;;;;;5049539;28;20981;-69
2022/11/30 09:03:33;;;;;;;1999.90;999.90;;;8.90;99.90;;;;;;5050100;28;20444;-69
2022/11/30 09:06:04;;;;;;;1999.90;999.90;;;8.80;99.90;;;;;;5049548;28;20459;-70
2022/11/30 09:08:31;;;;;;;1999.90;999.90;;;8.90;99.90;;;;;;5049476;28;20484;-69
2022/11/30 09:10:58;;;;;;;1999.90;999.90;;;9.10;99.90;;;;;;5047850;28;20472;-70
2022/11/30 09:13:26;;;;;;;1999.90;999.90;;;9.40;99.90;;;;;;5049594;28;20479;-69
2022/11/30 09:15:56;;;;;;;1999.90;999.90;;;9.60;99.90;;;;;;5049698;28;20494;-69
2022/11/30 09:18:23;;;;;;;1999.90;999.90;;;9.70;99.90;;;;;;5032860;28;20451;-71
2022/11/30 09:20:50;;;;;;;1999.90;999.90;;;9.80;99.90;;;;;;5049364;28;20470;-68
2022/11/30 09:23:16;;;;;;;1999.90;999.90;;;9.90;99.90;;;;;;5047978;28;20444;-68
2022/11/30 09:25:43;;;;;;;1999.90;999.90;;;10.00;99.90;;;;;;5049575;28;20822;-69
2022/11/30 09:28:10;;;;;;;1999.90;999.90;;;10.00;99.90;;;;;;5046160;28;20902;-71
2022/11/30 09:30:38;;;;;;;1999.90;999.90;;;9.90;99.90;;;;;;5049234;28;20834;-71
2022/11/30 09:33:05;;;;;;;1999.90;999.90;;;9.90;99.90;;;;;;5048046;28;20855;-68
2022/11/30 09:35:31;;;;;;;1999.90;999.90;;;9.90;99.90;;;;;;5049148;28;20460;-70
2022/11/30 09:37:58;;;;;;;1999.90;999.90;;;9.70;99.90;;;;;;5047829;28;20452;-68
2022/11/30 09:40:28;;;;;;;1999.90;999.90;;;9.60;99.90;;;;;;5049145;28;20746;-69
2022/11/30 09:43:01;;;;;;;1999.90;999.90;;;9.60;99.90;;;;;;5049492;28;20905;-69
2022/11/30 09:45:31;;;;;;;1999.90;999.90;;;9.50;99.90;;;;;;5049136;28;20446;-70
2022/11/30 09:48:23;;;;;;;1999.90;999.90;;;9.20;99.90;;;;;;5049229;28;20452;-70
2022/11/30 09:50:50;;;;;;;1999.90;999.90;;;9.00;99.90;;;;;;5047662;28;20472;-70
2022/11/30 09:53:22;;;;;;;1999.90;999.90;;;9.10;99.90;;;;;;5048413;28;20480;-69
2022/11/30 09:55:49;;;;;;;1999.90;999.90;;;9.10;99.90;;;;;;5044760;28;20826;-69
2022/11/30 09:58:24;;;;;;;1999.90;999.90;;;9.10;99.90;;;;;;5048671;28;20539;-69
2022/11/30 10:00:54;;;;;;;1999.90;999.90;;;9.00;99.90;;;;;;5049321;28;20466;-69
2022/11/30 10:03:23;;;;;;;1999.90;999.90;;;9.10;99.90;;;;;;5049125;28;20444;-70
2022/11/30 10:05:56;;;;;;;1999.90;999.90;;;8.90;99.90;;;;;;5049374;28;20448;-70
2022/11/30 10:08:53;;;;;;;1999.90;999.90;;;9.10;99.90;;;;;;5042133;28;20448;-70
2022/11/30 10:11:36;;;;;;;1999.90;999.90;;;9.10;99.90;;;;;;5046695;28;20468;-69
2022/11/30 10:14:18;;;;;;;1999.90;999.90;;;9.10;99.90;;;;;;5048769;28;20444;-69
2022/11/30 10:16:55;;;;;;;1999.90;999.90;;;9.00;99.90;;;;;;5048996;28;20444;-69
2022/11/30 10:19:46;;;;;;;1999.90;999.90;;;9.10;99.90;;;;;;5048922;28;20450;-69
2022/11/30 10:22:22;;;;;;;1999.90;999.90;;;9.20;99.90;;;;;;5047033;28;20440;-70
2022/11/30 10:25:03;;;;;;;1999.90;999.90;;;9.30;99.90;;;;;;5048753;28;20844;-70
2022/11/30 10:27:43;;;;;;;1999.90;999.90;;;9.40;99.90;;;;;;5048996;28;20529;-70
2022/11/30 10:30:14;;;;;;;1999.90;999.90;;;9.20;99.90;;;;;;5043208;28;20461;-68
2022/11/30 10:32:43;;;;;;;1999.90;999.90;;;9.30;99.90;;;;;;5043910;28;20487;-70
2022/11/30 10:35:21;;;;;;;1999.90;999.90;;;9.30;99.90;;;;;;5048743;28;20554;-69
2022/11/30 10:37:50;;;;;;;1999.90;999.90;;;9.40;99.90;;;;;;5049449;28;20454;-69
2022/11/30 10:40:26;;;;;;;1999.90;999.90;;;9.40;99.90;;;;;;5051982;28;20459;-70
2022/11/30 10:43:12;;;;;;;1999.90;999.90;;;9.40;99.90;;;;;;5051409;28;20443;-71
2022/11/30 10:45:46;;;;;;;1999.90;999.90;;;9.50;99.90;;;;;;5052124;28;20965;-69
2022/11/30 10:48:17;;;;;;;1999.90;999.90;;;9.50;99.90;;;;;;5052092;28;20444;-68
2022/11/30 10:50:46;;;;;;;1999.90;999.90;;;9.60;99.90;;;;;;5051968;28;20460;-68
2022/11/30 10:53:13;;;;;;;1999.90;999.90;;;9.50;99.90;;;;;;5048480;28;20483;-68
2022/11/30 10:55:42;;;;;;;1999.90;999.90;;;9.70;99.90;;;;;;5042553;28;20828;-69
2022/11/30 10:58:20;;;;;;;1999.90;999.90;;;9.70;99.90;;;;;;5050038;28;20440;-68
2022/11/30 11:00:55;;;;;;;1999.90;999.90;;;9.60;99.90;;;;;;5051667;28;20854;-68
2022/11/30 11:03:24;;;;;;;1999.90;999.90;;;9.60;99.90;;;;;;5051930;28;20501;-67
2022/11/30 11:06:07;;;;;;;1999.90;999.90;;;9.60;99.90;;;;;;5051768;28;20444;-70
2022/11/30 11:08:35;;;;;;;1999.90;999.90;;;9.70;99.90;;;;;;5041847;28;20812;-69
2022/11/30 11:11:01;;;;;;;1999.90;999.90;;;9.70;99.90;;;;;;5050550;28;21039;-69
2022/11/30 11:13:39;;;;;;;1999.90;999.90;;;9.70;99.90;;;;;;5050960;28;20472;-68
2022/11/30 11:16:08;;;;;;;1999.90;999.90;;;9.70;99.90;;;;;;5051133;28;21183;-68
2022/11/30 11:18:36;;;;;;;1999.90;999.90;;;9.80;99.90;;;;;;5044118;28;20444;-69
2022/11/30 11:21:07;;;;;;;1999.90;999.90;;;9.60;99.90;;;;;;5050773;28;20468;-69
2022/11/30 11:23:36;;;;;;;1999.90;999.90;;;9.70;99.90;;;;;;5051267;28;20451;-69
2022/11/30 11:26:04;;;;;;;1999.90;999.90;;;9.70;99.90;;;;;;5044946;28;20463;-69
2022/11/30 11:28:32;;;;;;;1999.90;999.90;;;9.80;99.90;;;;;;5051641;28;20545;-69
2022/11/30 11:30:59;;;;;;;1999.90;999.90;;;9.80;99.90;;;;;;5051563;28;20467;-69
2022/11/30 11:33:27;;;;;;;1999.90;999.90;;;9.90;99.90;;;;;;5050319;28;20484;-70
2022/11/30 11:35:55;;;;;;;1999.90;999.90;;;9.90;99.90;;;;;;5050065;28;20464;-68
2022/11/30 11:38:26;;;;;;;1999.90;999.90;;;9.80;99.90;;;;;;5051056;28;20445;-69
2022/11/30 11:40:59;;;;;;;1999.90;999.90;;;9.80;99.90;;;;;;5050074;28;20471;-69
2022/11/30 11:43:29;;;;;;;1999.90;999.90;;;9.80;99.90;;;;;;5051733;28;20440;-71
2022/11/30 11:46:00;;;;;;;1999.90;999.90;;;9.80;99.90;;;;;;5051385;28;21013;-70
2022/11/30 11:48:31;;;;;;;1999.90;999.90;;;9.80;99.90;;;;;;5050587;28;20531;-69
2022/11/30 11:51:00;;;;;;;1999.90;999.90;;;9.90;99.90;;;;;;5049940;28;20456;-68
2022/11/30 11:53:48;;;;;;;1999.90;999.90;;;9.80;99.90;;;;;;5050409;28;20479;-68
2022/11/30 11:56:20;;;;;;;1999.90;999.90;;;9.80;99.90;;;;;;5031996;28;20444;-68
2022/11/30 11:58:51;;;;;;;1999.90;999.90;;;10.00;99.90;;;;;;5039228;28;20538;-70
2022/11/30 12:01:32;;;;;;;1999.90;999.90;;;10.10;99.90;;;;;;5049840;28;20467;-72
2022/11/30 12:04:15;;;;;;;1999.90;999.90;;;10.10;99.90;;;;;;5049580;28;20447;-69
2022/11/30 12:06:44;;;;;;;1999.90;999.90;;;10.00;99.90;;;;;;5050654;28;20448;-68
2022/11/30 12:09:16;;;;;;;1999.90;999.90;;;9.90;99.90;;;;;;5050296;28;20960;-69
2022/11/30 12:11:44;;;;;;;1999.90;999.90;;;9.80;99.90;;;;;;5050141;28;20475;-69
2022/11/30 12:14:13;;;;;;;1999.90;999.90;;;10.00;99.90;;;;;;5034530;28;20866;-69
2022/11/30 12:16:58;;;;;;;1999.90;999.90;;;10.00;99.90;;;;;;5042763;28;20447;-70
2022/11/30 12:19:33;;;;;;;1999.90;999.90;;;10.10;99.90;;;;;;5050248;28;20441;-69
2022/11/30 12:22:09;;;;;;;1999.90;999.90;;;10.10;99.90;;;;;;5050269;28;20521;-69